createdAt,value
2017-10-04T00:02:08.922Z,98807.83
2017-10-04T00:04:38.021Z,98817.25
2017-10-04T00:07:07.152Z,98803.30
2017-10-04T00:09:35.483Z,98786.64
2017-10-04T00:12:03.847Z,98783.22
2017-10-04T00:14:32.184Z,98777.70
2017-10-04T00:17:00.524Z,98775.19
2017-10-04T00:19:28.888Z,98790.87
2017-10-04T00:21:57.226Z,98788.81
2017-10-04T00:24:25.599Z,98791.71
2017-10-04T00:26:53.927Z,98792.29
2017-10-04T00:29:23.027Z,98787.45
2017-10-04T00:31:51.391Z,98784.16
2017-10-04T00:34:19.723Z,98789.94
2017-10-04T00:36:48.853Z,98784.11
2017-10-04T00:39:17.196Z,98778.58
2017-10-04T00:41:46.307Z,98779.92
2017-10-04T00:44:15.431Z,98789.34
2017-10-04T00:46:43.771Z,98784.66
2017-10-04T00:49:12.905Z,98788.50
2017-10-04T00:51:41.249Z,98778.23
2017-10-04T00:54:10.368Z,98786.74
2017-10-04T00:56:38.746Z,98778.25
2017-10-04T00:59:07.086Z,98767.60
2017-10-04T01:01:35.441Z,98771.83
2017-10-04T01:04:03.775Z,98768.34
2017-10-04T01:06:32.879Z,98768.39
2017-10-04T01:09:02.007Z,98769.66
2017-10-04T01:11:30.339Z,98768.83
2017-10-04T01:13:59.476Z,98776.48
2017-10-04T01:16:27.812Z,98762.38
2017-10-04T01:18:56.182Z,98749.19
2017-10-04T01:21:24.520Z,98747.41
2017-10-04T01:23:52.865Z,98738.50
2017-10-04T01:26:21.982Z,98754.30
2017-10-04T01:28:50.316Z,98752.58
2017-10-04T01:31:18.681Z,98748.73
2017-10-04T01:33:47.012Z,98750.45
2017-10-04T01:36:16.141Z,98743.61
2017-10-04T01:38:44.471Z,98747.07
2017-10-04T01:41:12.808Z,98737.27
2017-10-04T01:43:41.171Z,98744.59
2017-10-04T01:46:09.499Z,98736.46
2017-10-04T01:48:37.866Z,98741.16
2017-10-04T01:51:06.204Z,98744.13
2017-10-04T01:53:34.560Z,98735.18
2017-10-04T01:56:03.667Z,98722.77
2017-10-04T01:58:32.771Z,98717.65
2017-10-04T02:01:01.905Z,98723.61
2017-10-04T02:03:30.255Z,98724.86
2017-10-04T02:05:58.622Z,98735.96
2017-10-04T02:08:27.729Z,98743.23
2017-10-04T02:10:56.831Z,98739.37
2017-10-04T02:13:25.193Z,98748.34
2017-10-04T02:15:54.296Z,98739.41
2017-10-04T02:18:23.415Z,98739.38
2017-10-04T02:20:51.755Z,98744.08
2017-10-04T02:23:20.112Z,98739.79
2017-10-04T02:25:48.479Z,98739.86
2017-10-04T02:28:16.829Z,98736.02
2017-10-04T02:30:45.200Z,98736.44
2017-10-04T02:33:14.299Z,98727.46
2017-10-04T02:35:43.448Z,98727.91
2017-10-04T02:38:11.783Z,98733.46
2017-10-04T02:40:40.121Z,98727.06
2017-10-04T02:43:08.483Z,98724.04
2017-10-04T02:45:36.816Z,98719.32
2017-10-04T02:48:05.945Z,98718.89
2017-10-04T02:50:34.279Z,98722.72
2017-10-04T02:53:03.408Z,98731.70
2017-10-04T02:55:31.748Z,98724.38
2017-10-04T02:58:00.135Z,98720.50
2017-10-04T03:00:28.471Z,98720.44
2017-10-04T03:02:56.811Z,98721.73
2017-10-04T03:05:25.929Z,98726.39
2017-10-04T03:07:54.257Z,98722.55
2017-10-04T03:10:22.615Z,98723.42
2017-10-04T03:12:50.967Z,98720.41
2017-10-04T03:15:19.799Z,98717.88
2017-10-04T03:17:48.136Z,98717.91
2017-10-04T03:20:16.468Z,98719.16
2017-10-04T03:22:44.823Z,98712.36
2017-10-04T03:25:13.158Z,98711.89
2017-10-04T03:27:42.281Z,98717.02
2017-10-04T03:30:10.617Z,98719.14
2017-10-04T03:32:38.968Z,98704.19
2017-10-04T03:35:07.332Z,98700.78
2017-10-04T03:37:35.668Z,98702.94
2017-10-04T03:40:04.806Z,98696.08
2017-10-04T03:42:33.140Z,98694.78
2017-10-04T03:45:01.481Z,98683.23
2017-10-04T03:47:29.841Z,98672.08
2017-10-04T03:49:58.171Z,98669.55
2017-10-04T03:52:26.531Z,98671.30
2017-10-04T03:54:54.871Z,98666.11
2017-10-04T03:57:23.207Z,98671.27
2017-10-04T03:59:51.573Z,98667.41
2017-10-04T04:02:19.907Z,98668.70
2017-10-04T04:04:49.138Z,98673.41
2017-10-04T04:07:17.471Z,98658.00
2017-10-04T04:09:46.585Z,98666.17
2017-10-04T04:12:15.716Z,98679.41
2017-10-04T04:14:44.047Z,98660.59
2017-10-04T04:17:13.180Z,98668.27
2017-10-04T04:19:41.516Z,98677.67
2017-10-04T04:22:09.853Z,98675.92
2017-10-04T04:24:38.206Z,98680.20
2017-10-04T04:27:06.543Z,98672.01
2017-10-04T04:29:34.907Z,98675.05
2017-10-04T04:32:03.244Z,98669.48
2017-10-04T04:34:32.351Z,98669.93
2017-10-04T04:37:00.712Z,98668.57
2017-10-04T04:39:29.821Z,98666.92
2017-10-04T04:41:58.954Z,98678.41
2017-10-04T04:44:27.288Z,98673.69
2017-10-04T04:46:56.424Z,98666.81
2017-10-04T04:49:24.760Z,98661.98
2017-10-04T04:51:53.871Z,98653.55
2017-10-04T04:54:23.007Z,98656.55
2017-10-04T04:56:51.343Z,98642.48
2017-10-04T04:59:21.752Z,98642.11
2017-10-04T05:01:50.096Z,98648.89
2017-10-04T05:04:18.433Z,98642.91
2017-10-04T05:06:47.568Z,98653.67
2017-10-04T05:09:15.901Z,98641.69
2017-10-04T05:11:44.260Z,98641.29
2017-10-04T05:14:12.597Z,98637.91
2017-10-04T05:16:40.927Z,98635.73
2017-10-04T05:19:09.289Z,98636.59
2017-10-04T05:21:37.620Z,98622.88
2017-10-04T05:24:06.753Z,98618.15
2017-10-04T05:26:35.089Z,98616.47
2017-10-04T05:29:04.188Z,98629.32
2017-10-04T05:31:33.324Z,98635.34
2017-10-04T05:34:01.659Z,98627.28
2017-10-04T05:36:30.789Z,98629.36
2017-10-04T05:38:59.123Z,98614.83
2017-10-04T05:41:28.351Z,98614.81
2017-10-04T05:43:57.466Z,98627.17
2017-10-04T05:46:25.804Z,98621.61
2017-10-04T05:48:54.164Z,98616.16
2017-10-04T05:51:22.499Z,98629.38
2017-10-04T05:53:50.859Z,98631.47
2017-10-04T05:56:20.256Z,98635.70
2017-10-04T05:58:48.595Z,98626.34
2017-10-04T06:01:16.949Z,98628.56
2017-10-04T06:03:45.289Z,98628.52
2017-10-04T06:06:13.647Z,98630.25
2017-10-04T06:08:41.979Z,98628.95
2017-10-04T06:11:11.072Z,98628.17
2017-10-04T06:13:40.202Z,98619.58
2017-10-04T06:16:08.535Z,98619.19
2017-10-04T06:18:37.666Z,98626.89
2017-10-04T06:21:05.992Z,98624.72
2017-10-04T06:23:34.325Z,98627.75
2017-10-04T06:26:02.680Z,98632.03
2017-10-04T06:28:31.775Z,98632.46
2017-10-04T06:31:00.905Z,98643.09
2017-10-04T06:33:29.236Z,98643.13
2017-10-04T06:35:57.573Z,98657.26
2017-10-04T06:38:25.932Z,98664.05
2017-10-04T06:40:55.024Z,98664.50
2017-10-04T06:43:24.147Z,98655.95
2017-10-04T06:45:52.485Z,98657.68
2017-10-04T06:48:20.814Z,98654.23
2017-10-04T06:50:49.171Z,98648.23
2017-10-04T06:53:17.507Z,98643.92
2017-10-04T06:55:45.872Z,98640.58
2017-10-04T06:58:14.206Z,98621.79
2017-10-04T07:00:43.308Z,98626.95
2017-10-04T07:03:11.667Z,98635.08
2017-10-04T07:05:40.783Z,98638.92
2017-10-04T07:08:09.912Z,98627.38
2017-10-04T07:10:38.252Z,98630.39
2017-10-04T07:13:07.348Z,98636.37
2017-10-04T07:15:36.471Z,98637.66
2017-10-04T07:18:04.802Z,98641.51
2017-10-04T07:20:33.163Z,98643.23
2017-10-04T07:23:01.495Z,98623.97
2017-10-04T07:25:30.591Z,98621.41
2017-10-04T07:27:59.721Z,98622.69
2017-10-04T07:30:28.055Z,98613.28
2017-10-04T07:32:57.193Z,98612.84
2017-10-04T07:35:25.527Z,98615.39
2017-10-04T07:37:53.857Z,98620.55
2017-10-04T07:40:22.211Z,98620.56
2017-10-04T07:42:51.307Z,98618.42
2017-10-04T07:45:20.438Z,98606.41
2017-10-04T07:47:48.795Z,98603.83
2017-10-04T07:50:17.124Z,98600.39
2017-10-04T07:52:45.471Z,98596.09
2017-10-04T07:55:13.837Z,98607.69
2017-10-04T07:57:42.172Z,98608.91
2017-10-04T08:00:10.514Z,98610.61
2017-10-04T08:02:38.889Z,98614.55
2017-10-04T08:05:07.224Z,98614.11
2017-10-04T08:07:35.594Z,98613.26
2017-10-04T08:10:03.936Z,98596.98
2017-10-04T08:12:32.287Z,98595.59
2017-10-04T08:15:01.386Z,98595.90
2017-10-04T08:17:30.512Z,98593.73
2017-10-04T08:19:58.847Z,98589.78
2017-10-04T08:22:27.955Z,98594.80
2017-10-04T08:24:57.079Z,98594.37
2017-10-04T08:27:25.411Z,98599.06
2017-10-04T08:29:54.669Z,98597.45
2017-10-04T08:32:23.004Z,98596.94
2017-10-04T08:34:52.109Z,98608.47
2017-10-04T08:37:21.231Z,98612.78
2017-10-04T08:39:49.560Z,98614.84
2017-10-04T08:42:17.924Z,98603.63
2017-10-04T08:44:46.266Z,98604.50
2017-10-04T08:47:32.396Z,98608.80
2017-10-04T08:50:00.733Z,98605.45
2017-10-04T08:52:29.912Z,98590.37
2017-10-04T08:54:59.051Z,98593.64
2017-10-04T08:57:27.383Z,98583.86
2017-10-04T08:59:55.752Z,98581.31
2017-10-04T09:02:24.091Z,98583.10
2017-10-04T09:18:33.342Z,98558.69
2017-10-04T09:21:01.685Z,98569.18
2017-10-04T09:23:30.780Z,98567.48
2017-10-04T09:25:59.899Z,98574.17
2017-10-04T09:28:28.229Z,98571.30
2017-10-04T09:30:56.587Z,98579.41
2017-10-04T09:33:24.931Z,98577.99
2017-10-04T09:35:54.036Z,98593.06
2017-10-04T09:38:22.400Z,98588.16
2017-10-04T09:40:51.506Z,98582.33
2017-10-04T09:43:19.870Z,98559.30
2017-10-04T09:45:48.972Z,98574.22
2017-10-04T09:48:18.071Z,98580.98
2017-10-04T09:50:47.210Z,98567.84
2017-10-04T09:53:15.539Z,98568.56
2017-10-04T09:55:43.902Z,98575.89
2017-10-04T09:58:12.238Z,98565.66
2017-10-04T10:00:40.568Z,98569.81
2017-10-04T10:03:08.928Z,98562.90
2017-10-04T10:05:37.284Z,98568.17
2017-10-04T10:08:05.646Z,98568.07
2017-10-04T10:10:33.986Z,98556.39
2017-10-04T10:13:02.325Z,98558.65
2017-10-04T10:15:30.679Z,98543.25
2017-10-04T10:17:59.775Z,98549.98
2017-10-04T10:20:28.904Z,98539.28
2017-10-04T10:22:57.241Z,98535.20
2017-10-04T10:25:26.355Z,98543.92
2017-10-04T10:27:55.480Z,98555.04
2017-10-04T10:30:23.814Z,98534.41
2017-10-04T10:32:52.947Z,98526.59
2017-10-04T10:35:21.275Z,98542.88
2017-10-04T10:37:49.619Z,98540.53
2017-10-04T10:40:17.978Z,98535.59
2017-10-04T10:42:46.335Z,98546.12
2017-10-04T10:45:15.463Z,98542.30
2017-10-04T10:47:43.797Z,98548.69
2017-10-04T10:50:12.128Z,98537.13
2017-10-04T10:52:40.495Z,98538.41
2017-10-04T10:55:08.832Z,98531.70
2017-10-04T10:57:37.192Z,98527.90
2017-10-04T11:00:05.528Z,98513.59
2017-10-04T11:02:34.624Z,98508.80
2017-10-04T11:05:03.766Z,98520.65
2017-10-04T11:07:32.104Z,98528.05
2017-10-04T11:10:01.256Z,98518.66
2017-10-04T11:12:29.600Z,98516.64
2017-10-04T11:14:57.955Z,98506.69
2017-10-04T11:17:27.060Z,98510.33
2017-10-04T11:19:56.159Z,98522.87
2017-10-04T11:22:25.299Z,98533.12
2017-10-04T11:24:53.631Z,98536.38
2017-10-04T11:27:22.777Z,98530.02
2017-10-04T11:29:51.116Z,98523.56
2017-10-04T11:32:19.524Z,98510.28
2017-10-04T11:34:47.935Z,98506.45
2017-10-04T11:37:16.267Z,98487.45
2017-10-04T11:39:44.645Z,98487.56
2017-10-04T11:42:13.752Z,98483.77
2017-10-04T11:44:42.117Z,98485.80
2017-10-04T11:47:11.224Z,98475.75
2017-10-04T11:49:39.559Z,98483.50
2017-10-04T11:52:07.927Z,98470.06
2017-10-04T11:54:36.270Z,98468.87
2017-10-04T11:57:04.631Z,98477.38
2017-10-04T11:59:33.753Z,98488.94
2017-10-04T12:02:02.112Z,98471.23
2017-10-04T12:04:31.216Z,98462.78
2017-10-04T12:07:00.339Z,98464.53
2017-10-04T12:09:28.671Z,98462.48
2017-10-04T12:11:57.008Z,98474.00
2017-10-04T12:14:25.368Z,98462.72
2017-10-04T12:16:54.487Z,98446.52
2017-10-04T12:19:22.843Z,98451.22
2017-10-04T12:21:52.347Z,98455.65
2017-10-04T12:24:20.703Z,98466.12
2017-10-04T12:26:49.035Z,98458.47
2017-10-04T12:29:17.400Z,98453.95
2017-10-04T12:31:45.736Z,98446.55
2017-10-04T12:34:14.070Z,98427.48
2017-10-04T12:36:42.427Z,98432.66
2017-10-04T12:39:10.760Z,98437.45
2017-10-04T12:41:39.120Z,98434.34
2017-10-04T12:44:07.460Z,98440.20
2017-10-04T12:46:36.560Z,98437.92
2017-10-04T12:49:05.696Z,98425.09
2017-10-04T12:51:34.034Z,98417.64
2017-10-04T12:54:03.156Z,98423.47
2017-10-04T12:56:31.492Z,98417.37
2017-10-04T12:58:59.843Z,98424.59
2017-10-04T13:01:28.184Z,98412.40
2017-10-04T13:03:56.522Z,98415.61
2017-10-04T13:06:24.900Z,98406.91
2017-10-04T13:08:53.249Z,98409.56
2017-10-04T13:11:21.631Z,98414.09
2017-10-04T13:13:49.965Z,98387.77
2017-10-04T13:16:19.101Z,98390.94
2017-10-04T13:18:47.436Z,98408.31
2017-10-04T13:21:15.771Z,98407.61
2017-10-04T13:23:44.131Z,98400.66
2017-10-04T13:26:12.460Z,98398.03
2017-10-04T13:28:40.819Z,98405.70
2017-10-04T13:31:09.151Z,98422.24
2017-10-04T13:33:38.260Z,98416.44
2017-10-04T13:36:07.382Z,98407.97
2017-10-04T13:38:35.720Z,98402.10
2017-10-04T13:41:04.843Z,98384.63
2017-10-04T13:43:33.183Z,98397.70
2017-10-04T13:46:01.523Z,98404.83
2017-10-04T13:48:29.904Z,98389.80
2017-10-04T13:50:58.251Z,98381.12
2017-10-04T13:53:27.388Z,98384.62
2017-10-04T13:55:55.731Z,98390.28
2017-10-04T13:58:24.096Z,98410.07
2017-10-04T14:00:53.196Z,98399.61
2017-10-04T14:03:22.327Z,98400.36
2017-10-04T14:05:50.662Z,98398.72
2017-10-04T14:08:19.019Z,98388.71
2017-10-04T14:10:47.383Z,98383.27
2017-10-04T14:13:15.731Z,98382.84
2017-10-04T14:15:44.858Z,98381.19
2017-10-04T14:18:13.208Z,98377.66
2017-10-04T14:20:42.324Z,98369.66
2017-10-04T14:23:10.687Z,98363.55
2017-10-04T14:25:39.796Z,98365.98
2017-10-04T14:28:08.919Z,98360.98
2017-10-04T14:30:37.261Z,98370.47
2017-10-04T14:33:06.368Z,98371.88
2017-10-04T14:35:34.776Z,98364.65
2017-10-04T14:38:03.113Z,98369.24
2017-10-04T14:40:32.239Z,98371.27
2017-10-04T14:43:00.587Z,98382.81
2017-10-04T14:45:29.716Z,98370.02
2017-10-04T14:47:58.063Z,98356.02
2017-10-04T14:50:27.207Z,98355.10
2017-10-04T14:52:55.548Z,98354.35
2017-10-04T14:55:24.647Z,98353.17
2017-10-04T14:57:53.780Z,98365.66
2017-10-04T15:00:22.127Z,98372.97
2017-10-04T15:02:51.263Z,98328.63
2017-10-04T15:05:19.595Z,98350.57
2017-10-04T15:07:48.727Z,98339.78
2017-10-04T15:10:17.112Z,98346.36
2017-10-04T15:12:45.521Z,98355.23
2017-10-04T15:15:13.860Z,98345.55
2017-10-04T15:17:42.236Z,98326.94
2017-10-04T15:20:11.344Z,98337.98
2017-10-04T15:22:39.679Z,98319.21
2017-10-04T15:25:08.049Z,98307.73
2017-10-04T15:27:36.384Z,98315.22
2017-10-04T15:30:06.324Z,98313.20
2017-10-04T15:32:34.668Z,98317.43
2017-10-04T15:35:03.788Z,98321.95
2017-10-04T15:37:32.145Z,98323.28
2017-10-04T15:40:01.247Z,98313.74
2017-10-04T15:42:30.370Z,98322.62
2017-10-04T15:44:58.706Z,98313.81
2017-10-04T15:47:27.064Z,98314.56
2017-10-04T15:49:55.415Z,98318.11
2017-10-04T15:52:23.749Z,98327.55
2017-10-04T15:54:52.117Z,98321.88
2017-10-04T15:57:20.457Z,98327.52
2017-10-04T15:59:48.816Z,98315.48
2017-10-04T16:02:17.147Z,98312.48
2017-10-04T16:04:45.516Z,98306.16
2017-10-04T16:07:13.864Z,98309.49
2017-10-04T16:09:42.204Z,98307.92
2017-10-04T16:12:10.556Z,98311.33
2017-10-04T16:14:38.892Z,98302.94
2017-10-04T16:17:08.023Z,98314.38
2017-10-04T16:19:36.372Z,98311.48
2017-10-04T16:22:06.388Z,98315.34
2017-10-04T16:24:35.513Z,98303.80
2017-10-04T16:27:03.850Z,98297.87
2017-10-04T16:29:32.979Z,98284.69
2017-10-04T16:32:01.317Z,98291.92
2017-10-04T16:34:29.660Z,98291.02
2017-10-04T16:36:58.968Z,98286.44
2017-10-04T16:39:27.308Z,98298.77
2017-10-04T16:41:56.456Z,98291.45
2017-10-04T16:44:24.822Z,98311.69
2017-10-04T16:46:53.159Z,98310.84
2017-10-04T16:49:22.288Z,98316.03
2017-10-04T16:51:50.627Z,98319.69
2017-10-04T16:54:19.761Z,98313.22
2017-10-04T16:56:48.096Z,98318.02
2017-10-04T16:59:16.436Z,98326.04
2017-10-04T17:01:44.794Z,98332.59
2017-10-04T17:04:13.136Z,98328.46
2017-10-04T17:06:41.501Z,98328.73
2017-10-04T17:09:09.831Z,98322.16
2017-10-04T17:11:38.204Z,98309.92
2017-10-04T17:14:08.543Z,98315.52
2017-10-04T17:16:36.880Z,98323.24
2017-10-04T17:19:05.239Z,98323.24
2017-10-04T17:21:33.583Z,98311.25
2017-10-04T17:24:01.945Z,98288.00
2017-10-04T17:26:31.041Z,98280.47
2017-10-04T17:29:00.139Z,98264.23
2017-10-04T17:31:29.263Z,98280.92
2017-10-04T17:33:57.599Z,98290.83
2017-10-04T17:36:25.948Z,98289.13
2017-10-04T17:38:54.292Z,98282.97
2017-10-04T17:41:22.664Z,98275.34
2017-10-04T17:43:51.020Z,98292.51
2017-10-04T17:46:19.360Z,98299.46
2017-10-04T17:48:47.721Z,98315.80
2017-10-04T17:51:16.078Z,98309.72
2017-10-04T17:53:45.218Z,98308.14
2017-10-04T17:56:13.565Z,98309.47
2017-10-04T17:58:43.494Z,98320.91
2017-10-04T18:01:11.868Z,98324.30
2017-10-04T18:03:40.262Z,98310.57
2017-10-04T18:06:08.624Z,98306.19
2017-10-04T18:08:37.724Z,98290.86
2017-10-04T18:11:06.064Z,98289.27
2017-10-04T18:13:34.426Z,98284.83
2017-10-04T18:16:02.755Z,98275.14
2017-10-04T18:18:31.877Z,98288.83
2017-10-04T18:21:00.214Z,98296.94
2017-10-04T18:23:28.561Z,98287.63
2017-10-04T18:25:56.920Z,98274.73
2017-10-04T18:28:25.256Z,98269.45
2017-10-04T18:30:53.619Z,98286.59
2017-10-04T18:33:22.044Z,98276.55
2017-10-04T18:35:51.145Z,98274.55
2017-10-04T18:38:19.536Z,98280.53
2017-10-04T18:40:47.868Z,98290.97
2017-10-04T18:43:16.227Z,98291.59
2017-10-04T18:45:44.627Z,98285.84
2017-10-04T18:48:12.963Z,98298.77
2017-10-04T18:50:41.315Z,98305.78
2017-10-04T18:53:10.423Z,98306.63
2017-10-04T18:55:39.559Z,98309.63
2017-10-04T18:58:07.890Z,98298.38
2017-10-04T19:00:37.055Z,98300.67
2017-10-04T19:03:05.422Z,98293.45
2017-10-04T19:05:33.759Z,98292.78
2017-10-04T19:08:02.984Z,98281.73
2017-10-04T19:10:31.312Z,98286.58
2017-10-04T19:12:59.684Z,98289.58
2017-10-04T19:15:28.047Z,98284.52
2017-10-04T19:17:57.143Z,98287.03
2017-10-04T19:20:25.505Z,98279.31
2017-10-04T19:22:53.833Z,98286.66
2017-10-04T19:25:22.185Z,98296.06
2017-10-04T19:27:50.552Z,98300.77
2017-10-04T19:30:18.884Z,98279.66
2017-10-04T19:32:48.026Z,98283.71
2017-10-04T19:35:16.363Z,98296.33
2017-10-04T19:37:45.467Z,98308.75
2017-10-04T19:40:14.600Z,98316.73
2017-10-04T19:42:42.936Z,98309.87
2017-10-04T19:45:11.295Z,98319.33
2017-10-04T19:47:40.481Z,98285.23
2017-10-04T19:50:09.169Z,98314.00
2017-10-04T19:52:38.091Z,98298.33
2017-10-04T19:55:07.220Z,98288.74
2017-10-04T19:57:36.487Z,98293.87
2017-10-04T20:00:04.821Z,98290.05
2017-10-04T20:02:33.830Z,98289.16
2017-10-04T20:05:02.317Z,98288.61
2017-10-04T20:07:30.729Z,98281.71
2017-10-04T20:09:59.097Z,98281.81
2017-10-04T20:12:27.440Z,98276.33
2017-10-04T20:14:55.800Z,98282.64
2017-10-04T20:17:24.895Z,98274.70
2017-10-04T20:19:54.040Z,98272.05
2017-10-04T20:22:22.386Z,98263.96
2017-10-04T20:24:50.749Z,98275.97
2017-10-04T20:27:19.894Z,98275.48
2017-10-04T20:29:48.252Z,98273.58
2017-10-04T20:32:18.293Z,98265.11
2017-10-04T20:34:46.631Z,98262.61
2017-10-04T20:37:15.732Z,98260.33
2017-10-04T20:39:44.862Z,98261.23
2017-10-04T20:42:13.199Z,98271.87
2017-10-04T20:44:42.327Z,98266.66
2017-10-04T20:47:10.664Z,98255.72
2017-10-04T20:49:39.004Z,98254.50
2017-10-04T20:52:07.595Z,98266.03
2017-10-04T20:54:35.962Z,98267.75
2017-10-04T20:57:04.315Z,98269.59
2017-10-04T20:59:33.420Z,98272.16
2017-10-04T21:02:01.756Z,98277.69
2017-10-04T21:04:30.111Z,98267.73
2017-10-04T21:06:58.453Z,98263.95
2017-10-04T21:09:27.588Z,98254.52
2017-10-04T21:11:55.921Z,98259.95
2017-10-04T21:14:25.028Z,98253.78
2017-10-04T21:16:54.147Z,98235.48
2017-10-04T21:19:22.481Z,98246.91
2017-10-04T21:21:50.951Z,98242.67
2017-10-04T21:24:20.290Z,98239.14
2017-10-04T21:26:49.408Z,98244.17
2017-10-04T21:29:17.929Z,98232.80
2017-10-04T21:31:46.347Z,98220.74
2017-10-04T21:34:14.804Z,98219.70
2017-10-04T21:36:43.163Z,98220.66
2017-10-04T21:39:11.499Z,98214.16
2017-10-04T21:41:40.861Z,98212.95
2017-10-04T21:44:10.031Z,98209.67
2017-10-04T21:46:38.364Z,98201.45
2017-10-04T21:49:07.495Z,98199.69
2017-10-04T21:51:35.832Z,98201.19
2017-10-04T21:54:04.188Z,98207.55
2017-10-04T21:56:32.527Z,98203.23
2017-10-04T21:59:01.623Z,98213.29
2017-10-04T22:01:30.752Z,98193.50
2017-10-04T22:03:59.091Z,98190.42
2017-10-04T22:06:28.224Z,98191.33
2017-10-04T22:08:56.557Z,98178.10
2017-10-04T22:11:24.939Z,98171.69
2017-10-04T22:13:53.306Z,98169.84
2017-10-04T22:16:21.652Z,98167.66
2017-10-04T22:18:50.007Z,98169.92
2017-10-04T22:21:18.343Z,98163.57
2017-10-04T22:23:46.696Z,98167.30
2017-10-04T22:26:15.051Z,98162.56
2017-10-04T22:28:43.388Z,98156.63
2017-10-04T22:31:11.745Z,98154.46
2017-10-04T22:33:40.083Z,98157.75
2017-10-04T22:36:09.227Z,98158.13
2017-10-04T22:38:37.566Z,98150.41
2017-10-04T22:41:05.904Z,98148.72
2017-10-04T22:43:34.264Z,98145.02
2017-10-04T22:46:02.638Z,98139.38
2017-10-04T22:48:30.960Z,98133.28
2017-10-04T22:50:59.324Z,98128.80
2017-10-04T22:53:27.659Z,98132.47
2017-10-04T22:55:55.992Z,98126.66
2017-10-04T22:58:25.354Z,98126.66
2017-10-04T23:00:53.743Z,98118.89
2017-10-04T23:03:22.108Z,98115.38
2017-10-04T23:05:50.443Z,98106.37
2017-10-04T23:08:18.803Z,98112.75
2017-10-04T23:10:47.139Z,98117.98
2017-10-04T23:13:15.470Z,98114.41
2017-10-04T23:15:43.845Z,98107.69
2017-10-04T23:18:12.183Z,98100.41
2017-10-04T23:20:40.546Z,98088.84
2017-10-04T23:23:09.639Z,98077.12
2017-10-04T23:25:38.740Z,98087.36
2017-10-04T23:28:07.866Z,98091.61
2017-10-04T23:30:36.198Z,98085.95
2017-10-04T23:33:04.551Z,98085.73
2017-10-04T23:35:32.887Z,98088.84
2017-10-04T23:38:02.027Z,98078.49
2017-10-04T23:40:30.367Z,98063.11
2017-10-04T23:42:59.460Z,98058.61
2017-10-04T23:45:28.591Z,98051.63
2017-10-04T23:47:56.919Z,98055.88
2017-10-04T23:50:26.525Z,98043.25
2017-10-04T23:52:54.860Z,98050.14
2017-10-04T23:55:23.223Z,98047.58
2017-10-04T23:57:51.590Z,98051.47
